DLH11 EDDW-LFBZ
Flight info
| Callsign | DLH11 |
|---|---|
| Flight time | 1h 57m |
| Altitude | 38000 |
| Route | WIMCI1Z WIMCI Y348 DOMEG DCT MISGO DCT RASCA DCT FAMEN/N0435F370 DCT AHVEC UN857 DISAK DCT ARKIP DCT ARNAV DCT LMG/N0421F330 DCT UVELI DCT OSMOB DCT VAVIX/N0340F190 DCT MAGEC |
| Aircraft | A320/M-SDE3FGHIRWY/LB1 |
Departure
| Time | 2026-04-23 12:22 |
|---|---|
| Airport | Bremen Airport (EDDW) |
Arrival
| Time | 2026-04-23 14:19 |
|---|---|
| Airport | Biarritz Pays Basque airport (LFBZ) |
| Time | Latitude | Longitude | Altitude | Speed | Heading |
|---|---|---|---|---|---|
| 2026-04-23 11:36 | 53.05202 | 8.78468 | 19 ft | 0 kts | 37° |
| 2026-04-23 12:13 | 53.05193 | 8.78457 | 19 ft | 3 kts | 38° |
| 2026-04-23 12:14 | 53.05177 | 8.78436 | 19 ft | 3 kts | 43° |
| 2026-04-23 12:14 | 53.05163 | 8.78412 | 21 ft | 3 kts | 55° |
| 2026-04-23 12:14 | 53.05154 | 8.78384 | 19 ft | 3 kts | 89° |
| 2026-04-23 12:14 | 53.05155 | 8.78365 | 21 ft | 0 kts | 121° |
| 2026-04-23 12:17 | 53.05150 | 8.78381 | 19 ft | 5 kts | 121° |
| 2026-04-23 12:17 | 53.05110 | 8.78465 | 19 ft | 14 kts | 135° |
| 2026-04-23 12:18 | 53.05034 | 8.78574 | 19 ft | 14 kts | 140° |
| 2026-04-23 12:18 | 53.04955 | 8.78656 | 19 ft | 14 kts | 172° |
| 2026-04-23 12:18 | 53.04856 | 8.78699 | 19 ft | 14 kts | 126° |
| 2026-04-23 12:18 | 53.04855 | 8.78855 | 19 ft | 13 kts | 87° |
| 2026-04-23 12:19 | 53.04858 | 8.78999 | 19 ft | 12 kts | 87° |
| 2026-04-23 12:19 | 53.04861 | 8.79146 | 19 ft | 16 kts | 89° |
| 2026-04-23 12:19 | 53.04866 | 8.79390 | 19 ft | 27 kts | 88° |
| 2026-04-23 12:19 | 53.04876 | 8.79726 | 19 ft | 30 kts | 88° |
| 2026-04-23 12:20 | 53.04883 | 8.80066 | 19 ft | 28 kts | 89° |
| 2026-04-23 12:20 | 53.04889 | 8.80365 | 19 ft | 20 kts | 93° |
| 2026-04-23 12:20 | 53.04798 | 8.80463 | 19 ft | 16 kts | 180° |
| 2026-04-23 12:20 | 53.04725 | 8.80411 | 20 ft | 10 kts | 249° |
| 2026-04-23 12:21 | 53.04724 | 8.80391 | 20 ft | 0 kts | 266° |
| 2026-04-23 12:21 | 53.04724 | 8.80383 | 20 ft | 11 kts | 266° |
| 2026-04-23 12:21 | 53.04710 | 8.79707 | 19 ft | 103 kts | 268° |
| 2026-04-23 12:21 | 53.04677 | 8.78161 | 227 ft | 152 kts | 272° |
| 2026-04-23 12:22 | 53.04652 | 8.76306 | 839 ft | 174 kts | 273° |
| 2026-04-23 12:22 | 53.04559 | 8.74053 | 1181 ft | 215 kts | 260° |
| 2026-04-23 12:22 | 53.03764 | 8.71774 | 1487 ft | 253 kts | 219° |
| 2026-04-23 12:22 | 53.02014 | 8.70850 | 2069 ft | 282 kts | 181° |
| 2026-04-23 12:23 | 53.00046 | 8.70970 | 3212 ft | 280 kts | 176° |
| 2026-04-23 12:23 | 52.98281 | 8.71913 | 4663 ft | 260 kts | 138° |
| 2026-04-23 12:23 | 52.97099 | 8.74152 | 5714 ft | 259 kts | 126° |
| 2026-04-23 12:23 | 52.95966 | 8.76476 | 6789 ft | 255 kts | 125° |
| 2026-04-23 12:24 | 52.94868 | 8.78725 | 7875 ft | 249 kts | 129° |
| 2026-04-23 12:24 | 52.93613 | 8.80732 | 8762 ft | 252 kts | 139° |
| 2026-04-23 12:24 | 52.92162 | 8.82354 | 9692 ft | 252 kts | 148° |
| 2026-04-23 12:24 | 52.90558 | 8.83586 | 10506 ft | 258 kts | 159° |
| 2026-04-23 12:25 | 52.88807 | 8.84366 | 11273 ft | 263 kts | 169° |
| 2026-04-23 12:25 | 52.86959 | 8.84804 | 11802 ft | 278 kts | 167° |
| 2026-04-23 12:25 | 52.85005 | 8.85628 | 12121 ft | 302 kts | 162° |
| 2026-04-23 12:25 | 52.82933 | 8.86746 | 12394 ft | 326 kts | 160° |
| 2026-04-23 12:26 | 52.80742 | 8.88004 | 12894 ft | 339 kts | 159° |
| 2026-04-23 12:26 | 52.78491 | 8.89281 | 13654 ft | 344 kts | 160° |
| 2026-04-23 12:26 | 52.76202 | 8.90535 | 14404 ft | 349 kts | 160° |
| 2026-04-23 12:26 | 52.73877 | 8.91759 | 15123 ft | 353 kts | 161° |
| 2026-04-23 12:27 | 52.71470 | 8.92648 | 15794 ft | 358 kts | 173° |
| 2026-04-23 12:27 | 52.68963 | 8.92627 | 16479 ft | 363 kts | 186° |
| 2026-04-23 12:27 | 52.66491 | 8.91697 | 17134 ft | 368 kts | 199° |
| 2026-04-23 12:27 | 52.64160 | 8.89928 | 17779 ft | 372 kts | 208° |
| 2026-04-23 12:28 | 52.61855 | 8.87919 | 18448 ft | 376 kts | 207° |
| 2026-04-23 12:28 | 52.59535 | 8.85904 | 19021 ft | 380 kts | 207° |
| 2026-04-23 12:28 | 52.58302 | 8.84832 | 19333 ft | 382 kts | 207° |
| 2026-04-23 12:28 | 52.56097 | 8.83105 | 19859 ft | 385 kts | 204° |
| 2026-04-23 12:29 | 52.53704 | 8.81098 | 20422 ft | 388 kts | 207° |
| 2026-04-23 12:29 | 52.51299 | 8.78935 | 20999 ft | 391 kts | 208° |
| 2026-04-23 12:29 | 52.49649 | 8.77446 | 21392 ft | 393 kts | 208° |
| 2026-04-23 12:29 | 52.47204 | 8.75265 | 21956 ft | 396 kts | 207° |
| 2026-04-23 12:30 | 52.44724 | 8.73101 | 22508 ft | 400 kts | 207° |
| 2026-04-23 12:30 | 52.42221 | 8.70949 | 23049 ft | 403 kts | 206° |
| 2026-04-23 12:30 | 52.39692 | 8.68794 | 23585 ft | 406 kts | 206° |
| 2026-04-23 12:30 | 52.37140 | 8.66628 | 24083 ft | 409 kts | 206° |
| 2026-04-23 12:31 | 52.34604 | 8.64479 | 24525 ft | 412 kts | 206° |
| 2026-04-23 12:31 | 52.32001 | 8.62269 | 24977 ft | 415 kts | 206° |
| 2026-04-23 12:31 | 52.29594 | 8.60211 | 25403 ft | 417 kts | 208° |
| 2026-04-23 12:31 | 52.27160 | 8.57498 | 25835 ft | 421 kts | 219° |
| 2026-04-23 12:32 | 52.25041 | 8.54177 | 26250 ft | 424 kts | 228° |
| 2026-04-23 12:32 | 52.23040 | 8.50537 | 26661 ft | 426 kts | 227° |
| 2026-04-23 12:32 | 52.21047 | 8.46943 | 27092 ft | 428 kts | 227° |
| 2026-04-23 12:32 | 52.19010 | 8.43292 | 27510 ft | 431 kts | 227° |
| 2026-04-23 12:33 | 52.16986 | 8.39679 | 27916 ft | 433 kts | 227° |
| 2026-04-23 12:33 | 52.14919 | 8.35999 | 28315 ft | 436 kts | 227° |
| 2026-04-23 12:33 | 52.12868 | 8.32351 | 28715 ft | 438 kts | 226° |
| 2026-04-23 12:33 | 52.10777 | 8.28632 | 29115 ft | 440 kts | 226° |
| 2026-04-23 12:34 | 52.08707 | 8.24954 | 29516 ft | 443 kts | 226° |
| 2026-04-23 12:34 | 52.06625 | 8.21256 | 29864 ft | 445 kts | 226° |
| 2026-04-23 12:34 | 52.04499 | 8.17483 | 30252 ft | 447 kts | 226° |
| 2026-04-23 12:34 | 52.02359 | 8.13692 | 30598 ft | 450 kts | 226° |
| 2026-04-23 12:35 | 52.00244 | 8.09949 | 30914 ft | 452 kts | 226° |
| 2026-04-23 12:35 | 51.98113 | 8.06179 | 31222 ft | 454 kts | 226° |
| 2026-04-23 12:35 | 51.95973 | 8.02404 | 31542 ft | 455 kts | 226° |
| 2026-04-23 12:35 | 51.93792 | 7.98572 | 31908 ft | 455 kts | 226° |
| 2026-04-23 12:36 | 51.91648 | 7.94810 | 32357 ft | 454 kts | 226° |
| 2026-04-23 12:36 | 51.89512 | 7.91062 | 32785 ft | 452 kts | 226° |
| 2026-04-23 12:36 | 51.87380 | 7.87320 | 33217 ft | 451 kts | 226° |
| 2026-04-23 12:36 | 51.85232 | 7.83549 | 33650 ft | 450 kts | 226° |
| 2026-04-23 12:37 | 51.83072 | 7.79769 | 34097 ft | 448 kts | 225° |
| 2026-04-23 12:37 | 51.80966 | 7.76094 | 34499 ft | 447 kts | 225° |
| 2026-04-23 12:37 | 51.78835 | 7.72383 | 34843 ft | 446 kts | 225° |
| 2026-04-23 12:37 | 51.77431 | 7.69942 | 35059 ft | 445 kts | 225° |
| 2026-04-23 12:38 | 51.74607 | 7.65048 | 35479 ft | 445 kts | 225° |
| 2026-04-23 12:38 | 51.72502 | 7.61411 | 35784 ft | 444 kts | 225° |
| 2026-04-23 12:38 | 51.71136 | 7.58950 | 35990 ft | 444 kts | 230° |
| 2026-04-23 12:38 | 51.68739 | 7.53486 | 36368 ft | 444 kts | 234° |
| 2026-04-23 12:39 | 51.67149 | 7.49705 | 36622 ft | 444 kts | 234° |
| 2026-04-23 12:39 | 51.66285 | 7.47656 | 36731 ft | 443 kts | 234° |
| 2026-04-23 12:39 | 51.65093 | 7.44729 | 36974 ft | 437 kts | 234° |
| 2026-04-23 12:39 | 51.63379 | 7.40637 | 37115 ft | 440 kts | 234° |
| 2026-04-23 12:40 | 51.61630 | 7.36568 | 37338 ft | 441 kts | 233° |
| 2026-04-23 12:40 | 51.59876 | 7.32537 | 37584 ft | 440 kts | 233° |
| 2026-04-23 12:40 | 51.58121 | 7.28503 | 37856 ft | 440 kts | 234° |
| 2026-04-23 12:40 | 51.56388 | 7.24499 | 38102 ft | 439 kts | 234° |
| 2026-04-23 12:41 | 51.54591 | 7.20325 | 38334 ft | 439 kts | 234° |
| 2026-04-23 12:41 | 51.52865 | 7.16298 | 38382 ft | 437 kts | 234° |
| 2026-04-23 12:41 | 51.49410 | 7.08230 | 38395 ft | 435 kts | 234° |
| 2026-04-23 12:42 | 51.45969 | 7.00247 | 38397 ft | 434 kts | 234° |
| 2026-04-23 12:42 | 51.42456 | 6.92162 | 38444 ft | 433 kts | 234° |
| 2026-04-23 12:43 | 51.38595 | 6.84397 | 38428 ft | 429 kts | 222° |
| 2026-04-23 12:43 | 51.34424 | 6.77711 | 38427 ft | 430 kts | 223° |
| 2026-04-23 12:44 | 51.30194 | 6.70740 | 38416 ft | 431 kts | 224° |
| 2026-04-23 12:44 | 51.26011 | 6.63833 | 38424 ft | 430 kts | 223° |
| 2026-04-23 12:45 | 51.21827 | 6.56993 | 38421 ft | 430 kts | 223° |
| 2026-04-23 12:45 | 51.17587 | 6.50106 | 38417 ft | 430 kts | 223° |
| 2026-04-23 12:46 | 51.15486 | 6.46693 | 38241 ft | 429 kts | 221° |
| 2026-04-23 12:46 | 51.13413 | 6.43327 | 38391 ft | 426 kts | 221° |
| 2026-04-23 12:46 | 51.09219 | 6.36541 | 38412 ft | 427 kts | 221° |
| 2026-04-23 12:47 | 51.05035 | 6.29787 | 38414 ft | 426 kts | 221° |
| 2026-04-23 12:47 | 51.00861 | 6.23071 | 38416 ft | 425 kts | 221° |
| 2026-04-23 12:48 | 50.97345 | 6.17433 | 38421 ft | 425 kts | 221° |
| 2026-04-23 12:48 | 50.93219 | 6.10831 | 38421 ft | 425 kts | 221° |
| 2026-04-23 12:49 | 50.89042 | 6.04148 | 38419 ft | 425 kts | 221° |
| 2026-04-23 12:49 | 50.86169 | 5.99555 | 38419 ft | 425 kts | 220° |
| 2026-04-23 12:50 | 50.82077 | 5.93093 | 38412 ft | 425 kts | 220° |
| 2026-04-23 12:50 | 50.77872 | 5.86413 | 38413 ft | 425 kts | 220° |
| 2026-04-23 12:51 | 50.73725 | 5.79830 | 38412 ft | 426 kts | 220° |
| 2026-04-23 12:51 | 50.69500 | 5.73169 | 38408 ft | 426 kts | 220° |
| 2026-04-23 12:52 | 50.65322 | 5.66588 | 38417 ft | 426 kts | 220° |
| 2026-04-23 12:52 | 50.61110 | 5.59983 | 38418 ft | 426 kts | 220° |
| 2026-04-23 12:53 | 50.56851 | 5.53322 | 38418 ft | 427 kts | 220° |
| 2026-04-23 12:53 | 50.52636 | 5.46742 | 38420 ft | 427 kts | 220° |
| 2026-04-23 12:54 | 50.48402 | 5.40153 | 38413 ft | 427 kts | 219° |
| 2026-04-23 12:54 | 50.44100 | 5.33478 | 38409 ft | 428 kts | 219° |
| 2026-04-23 12:55 | 50.39866 | 5.26916 | 38405 ft | 428 kts | 219° |
| 2026-04-23 12:55 | 50.35610 | 5.20347 | 38402 ft | 428 kts | 219° |
| 2026-04-23 12:56 | 50.31342 | 5.13779 | 38395 ft | 428 kts | 219° |
| 2026-04-23 12:56 | 50.27079 | 5.07232 | 38395 ft | 429 kts | 219° |
| 2026-04-23 12:57 | 50.22773 | 5.00635 | 38395 ft | 429 kts | 219° |
| 2026-04-23 12:57 | 50.18515 | 4.94127 | 38407 ft | 428 kts | 219° |
| 2026-04-23 12:58 | 50.14262 | 4.87541 | 38409 ft | 430 kts | 224° |
| 2026-04-23 12:58 | 50.10394 | 4.80396 | 38410 ft | 430 kts | 225° |
| 2026-04-23 12:59 | 50.06491 | 4.73184 | 38414 ft | 430 kts | 225° |
| 2026-04-23 12:59 | 50.02586 | 4.65994 | 38408 ft | 429 kts | 225° |
| 2026-04-23 13:00 | 49.98761 | 4.58976 | 38410 ft | 427 kts | 225° |
| 2026-04-23 13:00 | 49.94837 | 4.52077 | 38407 ft | 425 kts | 222° |
| 2026-04-23 13:01 | 49.90754 | 4.45474 | 38402 ft | 423 kts | 221° |
| 2026-04-23 13:01 | 49.86652 | 4.38949 | 38403 ft | 422 kts | 221° |
| 2026-04-23 13:02 | 49.82581 | 4.32386 | 38409 ft | 422 kts | 222° |
| 2026-04-23 13:02 | 49.78525 | 4.25805 | 38409 ft | 422 kts | 222° |
| 2026-04-23 13:03 | 49.75156 | 4.20353 | 38399 ft | 422 kts | 222° |
| 2026-04-23 13:03 | 49.71071 | 4.13756 | 38399 ft | 422 kts | 222° |
| 2026-04-23 13:04 | 49.67870 | 4.08789 | 38364 ft | 419 kts | 220° |
| 2026-04-23 13:04 | 49.63739 | 4.02305 | 38366 ft | 422 kts | 223° |
| 2026-04-23 13:05 | 49.59734 | 3.95664 | 38361 ft | 423 kts | 223° |
| 2026-04-23 13:05 | 49.55653 | 3.89033 | 38362 ft | 423 kts | 223° |
| 2026-04-23 13:06 | 49.49470 | 3.79208 | 38362 ft | 425 kts | 223° |
| 2026-04-23 13:07 | 49.45319 | 3.72638 | 38359 ft | 426 kts | 223° |
| 2026-04-23 13:07 | 49.41180 | 3.66099 | 38362 ft | 427 kts | 223° |
| 2026-04-23 13:08 | 49.37010 | 3.59513 | 38355 ft | 428 kts | 223° |
| 2026-04-23 13:08 | 49.32830 | 3.52934 | 38355 ft | 428 kts | 223° |
| 2026-04-23 13:09 | 49.28616 | 3.46332 | 38359 ft | 429 kts | 223° |
| 2026-04-23 13:09 | 49.24436 | 3.39780 | 38362 ft | 429 kts | 223° |
| 2026-04-23 13:10 | 49.20233 | 3.33206 | 38363 ft | 429 kts | 223° |
| 2026-04-23 13:10 | 49.16051 | 3.26692 | 38367 ft | 429 kts | 223° |
| 2026-04-23 13:11 | 49.11812 | 3.20108 | 38363 ft | 429 kts | 223° |
| 2026-04-23 13:11 | 49.07593 | 3.13570 | 38362 ft | 429 kts | 223° |
| 2026-04-23 13:12 | 49.03384 | 3.07062 | 38357 ft | 429 kts | 224° |
| 2026-04-23 13:12 | 48.99173 | 3.00570 | 38358 ft | 429 kts | 224° |
| 2026-04-23 13:13 | 48.94925 | 2.94056 | 38356 ft | 429 kts | 224° |
| 2026-04-23 13:13 | 48.90681 | 2.87609 | 38351 ft | 430 kts | 224° |
| 2026-04-23 13:14 | 48.87165 | 2.82203 | 38351 ft | 430 kts | 224° |
| 2026-04-23 13:14 | 48.83932 | 2.76229 | 38325 ft | 429 kts | 234° |
| 2026-04-23 13:15 | 48.80156 | 2.69224 | 38320 ft | 429 kts | 229° |
| 2026-04-23 13:15 | 48.76391 | 2.62052 | 38321 ft | 429 kts | 233° |
| 2026-04-23 13:16 | 48.72980 | 2.54627 | 38319 ft | 430 kts | 236° |
| 2026-04-23 13:16 | 48.69636 | 2.47045 | 38317 ft | 430 kts | 236° |
| 2026-04-23 13:17 | 48.66270 | 2.39560 | 38308 ft | 430 kts | 236° |
| 2026-04-23 13:17 | 48.62840 | 2.32101 | 38302 ft | 430 kts | 235° |
| 2026-04-23 13:18 | 48.59249 | 2.24720 | 38298 ft | 430 kts | 227° |
| 2026-04-23 13:18 | 48.54525 | 2.19275 | 38292 ft | 430 kts | 206° |
| 2026-04-23 13:18 | 48.51709 | 2.17597 | 38284 ft | 430 kts | 195° |
| 2026-04-23 13:19 | 48.48795 | 2.16585 | 38280 ft | 430 kts | 192° |
| 2026-04-23 13:19 | 48.42893 | 2.14686 | 38269 ft | 432 kts | 192° |
| 2026-04-23 13:20 | 48.37963 | 2.13100 | 38268 ft | 433 kts | 192° |
| 2026-04-23 13:21 | 48.32968 | 2.11675 | 38259 ft | 434 kts | 192° |
| 2026-04-23 13:21 | 48.26947 | 2.10485 | 38258 ft | 435 kts | 179° |
| 2026-04-23 13:22 | 48.20880 | 2.11494 | 38257 ft | 436 kts | 172° |
| 2026-04-23 13:22 | 48.14821 | 2.12770 | 38257 ft | 437 kts | 175° |
| 2026-04-23 13:23 | 48.08730 | 2.12299 | 38259 ft | 437 kts | 188° |
| 2026-04-23 13:23 | 48.02685 | 2.11127 | 38260 ft | 438 kts | 188° |
| 2026-04-23 13:24 | 47.96599 | 2.09951 | 38261 ft | 439 kts | 188° |
| 2026-04-23 13:24 | 47.90497 | 2.08782 | 38266 ft | 439 kts | 188° |
| 2026-04-23 13:25 | 47.85414 | 2.07819 | 38268 ft | 439 kts | 188° |
| 2026-04-23 13:25 | 47.79315 | 2.06662 | 38269 ft | 440 kts | 188° |
| 2026-04-23 13:26 | 47.74326 | 2.06209 | 38228 ft | 439 kts | 184° |
| 2026-04-23 13:26 | 47.68240 | 2.05074 | 38234 ft | 438 kts | 191° |
| 2026-04-23 13:27 | 47.62271 | 2.02994 | 38233 ft | 436 kts | 203° |
| 2026-04-23 13:27 | 47.56666 | 1.99583 | 38231 ft | 436 kts | 203° |
| 2026-04-23 13:28 | 47.50949 | 1.96362 | 38225 ft | 437 kts | 202° |
| 2026-04-23 13:28 | 47.45220 | 1.93159 | 38226 ft | 437 kts | 203° |
| 2026-04-23 13:29 | 47.39505 | 1.89885 | 38231 ft | 437 kts | 204° |
| 2026-04-23 13:29 | 47.33761 | 1.86555 | 38233 ft | 438 kts | 204° |
| 2026-04-23 13:30 | 47.28051 | 1.83253 | 38234 ft | 438 kts | 204° |
| 2026-04-23 13:30 | 47.22362 | 1.80000 | 38231 ft | 438 kts | 204° |
| 2026-04-23 13:31 | 47.16626 | 1.76738 | 38228 ft | 439 kts | 204° |
| 2026-04-23 13:31 | 47.10884 | 1.73504 | 38224 ft | 439 kts | 204° |
| 2026-04-23 13:32 | 47.05102 | 1.70257 | 38207 ft | 439 kts | 204° |
| 2026-04-23 13:32 | 46.99389 | 1.67056 | 38207 ft | 439 kts | 204° |
| 2026-04-23 13:33 | 46.93641 | 1.63839 | 38219 ft | 439 kts | 204° |
| 2026-04-23 13:33 | 46.87892 | 1.60624 | 38213 ft | 439 kts | 204° |
| 2026-04-23 13:34 | 46.82144 | 1.57417 | 38222 ft | 439 kts | 204° |
| 2026-04-23 13:34 | 46.76394 | 1.54229 | 38218 ft | 439 kts | 204° |
| 2026-04-23 13:35 | 46.71604 | 1.51574 | 38211 ft | 439 kts | 205° |
| 2026-04-23 13:35 | 46.65894 | 1.48414 | 38216 ft | 439 kts | 205° |
| 2026-04-23 13:36 | 46.61208 | 1.45428 | 38209 ft | 436 kts | 207° |
| 2026-04-23 13:36 | 46.55470 | 1.42251 | 38191 ft | 440 kts | 202° |
| 2026-04-23 13:37 | 46.49671 | 1.39409 | 38189 ft | 440 kts | 203° |
| 2026-04-23 13:37 | 46.43923 | 1.36398 | 38177 ft | 439 kts | 205° |
| 2026-04-23 13:38 | 46.38221 | 1.33245 | 38177 ft | 439 kts | 205° |
| 2026-04-23 13:38 | 46.32547 | 1.30094 | 38176 ft | 439 kts | 205° |
| 2026-04-23 13:39 | 46.26830 | 1.26960 | 38172 ft | 440 kts | 205° |
| 2026-04-23 13:39 | 46.21097 | 1.23859 | 38175 ft | 440 kts | 204° |
| 2026-04-23 13:40 | 46.15375 | 1.20763 | 38175 ft | 439 kts | 205° |
| 2026-04-23 13:40 | 46.09653 | 1.17663 | 38173 ft | 439 kts | 205° |
| 2026-04-23 13:41 | 46.03928 | 1.14566 | 38172 ft | 439 kts | 205° |
| 2026-04-23 13:41 | 45.98211 | 1.11482 | 38173 ft | 439 kts | 204° |
| 2026-04-23 13:42 | 45.92499 | 1.08408 | 38170 ft | 438 kts | 204° |
| 2026-04-23 13:42 | 45.86791 | 1.05341 | 38173 ft | 437 kts | 204° |
| 2026-04-23 13:43 | 45.81271 | 1.01818 | 38173 ft | 430 kts | 217° |
| 2026-04-23 13:43 | 45.76602 | 0.96587 | 38174 ft | 425 kts | 224° |
| 2026-04-23 13:44 | 45.72069 | 0.91148 | 38170 ft | 425 kts | 224° |
| 2026-04-23 13:44 | 45.67540 | 0.85728 | 38177 ft | 424 kts | 224° |
| 2026-04-23 13:45 | 45.63006 | 0.80328 | 38170 ft | 424 kts | 224° |
| 2026-04-23 13:45 | 45.58470 | 0.74938 | 38174 ft | 424 kts | 224° |
| 2026-04-23 13:46 | 45.53938 | 0.69554 | 38165 ft | 423 kts | 224° |
| 2026-04-23 13:46 | 45.49414 | 0.64189 | 38160 ft | 423 kts | 224° |
| 2026-04-23 13:47 | 45.44891 | 0.58837 | 38162 ft | 423 kts | 224° |
| 2026-04-23 13:47 | 45.40362 | 0.53491 | 38158 ft | 422 kts | 223° |
| 2026-04-23 13:48 | 45.35838 | 0.48166 | 38150 ft | 422 kts | 223° |
| 2026-04-23 13:48 | 45.31315 | 0.42861 | 38147 ft | 422 kts | 223° |
| 2026-04-23 13:49 | 45.26791 | 0.37565 | 38146 ft | 421 kts | 223° |
| 2026-04-23 13:49 | 45.22269 | 0.32280 | 38139 ft | 421 kts | 223° |
| 2026-04-23 13:50 | 45.17754 | 0.27012 | 38144 ft | 421 kts | 223° |
| 2026-04-23 13:50 | 45.13227 | 0.21737 | 38134 ft | 420 kts | 223° |
| 2026-04-23 13:51 | 45.08703 | 0.16481 | 38123 ft | 421 kts | 223° |
| 2026-04-23 13:51 | 45.04166 | 0.11229 | 37932 ft | 424 kts | 223° |
| 2026-04-23 13:51 | 45.01857 | 0.08552 | 37051 ft | 432 kts | 223° |
| 2026-04-23 13:52 | 44.99535 | 0.05865 | 36455 ft | 431 kts | 223° |
| 2026-04-23 13:52 | 44.97225 | 0.03200 | 35913 ft | 428 kts | 223° |
| 2026-04-23 13:52 | 44.94955 | 0.00586 | 35434 ft | 424 kts | 223° |
| 2026-04-23 13:52 | 44.92679 | -0.02031 | 34961 ft | 421 kts | 223° |
| 2026-04-23 13:53 | 44.90419 | -0.04630 | 34509 ft | 417 kts | 223° |
| 2026-04-23 13:53 | 44.88150 | -0.07243 | 34052 ft | 414 kts | 223° |
| 2026-04-23 13:53 | 44.85965 | -0.09760 | 33556 ft | 410 kts | 223° |
| 2026-04-23 13:53 | 44.83764 | -0.12294 | 33050 ft | 407 kts | 223° |
| 2026-04-23 13:54 | 44.81581 | -0.14800 | 32585 ft | 403 kts | 223° |
| 2026-04-23 13:54 | 44.79417 | -0.17280 | 32103 ft | 400 kts | 223° |
| 2026-04-23 13:54 | 44.77266 | -0.19738 | 31632 ft | 396 kts | 223° |
| 2026-04-23 13:54 | 44.75128 | -0.22173 | 31165 ft | 393 kts | 223° |
| 2026-04-23 13:55 | 44.73008 | -0.24587 | 30714 ft | 390 kts | 223° |
| 2026-04-23 13:55 | 44.70908 | -0.26983 | 30266 ft | 387 kts | 223° |
| 2026-04-23 13:55 | 44.68822 | -0.29363 | 29761 ft | 385 kts | 223° |
| 2026-04-23 13:55 | 44.66753 | -0.31723 | 29238 ft | 382 kts | 223° |
| 2026-04-23 13:56 | 44.64694 | -0.34052 | 28733 ft | 379 kts | 222° |
| 2026-04-23 13:56 | 44.62580 | -0.36263 | 28245 ft | 378 kts | 219° |
| 2026-04-23 13:56 | 44.60426 | -0.38358 | 27760 ft | 375 kts | 218° |
| 2026-04-23 13:56 | 44.58263 | -0.40385 | 27265 ft | 373 kts | 218° |
| 2026-04-23 13:57 | 44.56103 | -0.42392 | 26806 ft | 371 kts | 218° |
| 2026-04-23 13:57 | 44.53965 | -0.44393 | 26347 ft | 368 kts | 218° |
| 2026-04-23 13:57 | 44.51848 | -0.46394 | 25905 ft | 366 kts | 218° |
| 2026-04-23 13:57 | 44.49753 | -0.48389 | 25460 ft | 363 kts | 218° |
| 2026-04-23 13:58 | 44.47673 | -0.50381 | 25029 ft | 361 kts | 219° |
| 2026-04-23 13:58 | 44.45609 | -0.52367 | 24594 ft | 359 kts | 219° |
| 2026-04-23 13:58 | 44.43555 | -0.54344 | 24166 ft | 357 kts | 218° |
| 2026-04-23 13:58 | 44.41513 | -0.56300 | 23751 ft | 355 kts | 218° |
| 2026-04-23 13:59 | 44.39677 | -0.58055 | 23320 ft | 353 kts | 218° |
| 2026-04-23 13:59 | 44.37651 | -0.59987 | 22855 ft | 351 kts | 218° |
| 2026-04-23 13:59 | 44.35617 | -0.61929 | 22416 ft | 348 kts | 218° |
| 2026-04-23 13:59 | 44.33625 | -0.63835 | 21995 ft | 346 kts | 218° |
| 2026-04-23 14:00 | 44.32287 | -0.65114 | 21711 ft | 344 kts | 217° |
| 2026-04-23 14:00 | 44.29650 | -0.67628 | 21162 ft | 341 kts | 217° |
| 2026-04-23 14:00 | 44.27697 | -0.69485 | 20766 ft | 339 kts | 217° |
| 2026-04-23 14:00 | 44.25752 | -0.71335 | 20370 ft | 337 kts | 217° |
| 2026-04-23 14:01 | 44.23826 | -0.73174 | 19982 ft | 335 kts | 217° |
| 2026-04-23 14:01 | 44.21888 | -0.75025 | 19596 ft | 333 kts | 217° |
| 2026-04-23 14:01 | 44.19985 | -0.76847 | 19215 ft | 331 kts | 217° |
| 2026-04-23 14:01 | 44.18053 | -0.78697 | 18767 ft | 333 kts | 217° |
| 2026-04-23 14:02 | 44.16138 | -0.80524 | 18319 ft | 333 kts | 217° |
| 2026-04-23 14:02 | 44.14223 | -0.82349 | 17817 ft | 334 kts | 217° |
| 2026-04-23 14:02 | 44.12326 | -0.84156 | 17318 ft | 335 kts | 216° |
| 2026-04-23 14:02 | 44.10378 | -0.86009 | 16822 ft | 335 kts | 216° |
| 2026-04-23 14:03 | 44.08453 | -0.87839 | 16337 ft | 336 kts | 216° |
| 2026-04-23 14:03 | 44.06523 | -0.89677 | 15866 ft | 337 kts | 216° |
| 2026-04-23 14:03 | 44.04611 | -0.91495 | 15395 ft | 337 kts | 216° |
| 2026-04-23 14:03 | 44.02673 | -0.93337 | 14936 ft | 338 kts | 216° |
| 2026-04-23 14:04 | 44.00708 | -0.95206 | 14470 ft | 337 kts | 216° |
| 2026-04-23 14:04 | 43.98776 | -0.97039 | 14016 ft | 337 kts | 216° |
| 2026-04-23 14:04 | 43.96866 | -0.98845 | 13551 ft | 336 kts | 216° |
| 2026-04-23 14:04 | 43.94940 | -1.00662 | 13050 ft | 334 kts | 215° |
| 2026-04-23 14:05 | 43.93024 | -1.02470 | 12559 ft | 332 kts | 215° |
| 2026-04-23 14:05 | 43.91115 | -1.04269 | 12077 ft | 330 kts | 215° |
| 2026-04-23 14:05 | 43.89224 | -1.06053 | 11600 ft | 328 kts | 214° |
| 2026-04-23 14:05 | 43.87343 | -1.07827 | 11130 ft | 326 kts | 214° |
| 2026-04-23 14:06 | 43.85472 | -1.09588 | 10674 ft | 324 kts | 214° |
| 2026-04-23 14:06 | 43.83618 | -1.11333 | 10210 ft | 321 kts | 213° |
| 2026-04-23 14:06 | 43.81775 | -1.13066 | 9746 ft | 319 kts | 213° |
| 2026-04-23 14:06 | 43.79945 | -1.14786 | 9250 ft | 317 kts | 213° |
| 2026-04-23 14:07 | 43.78129 | -1.16492 | 8761 ft | 315 kts | 213° |
| 2026-04-23 14:07 | 43.74538 | -1.19877 | 8029 ft | 305 kts | 214° |
| 2026-04-23 14:07 | 43.73400 | -1.21049 | 7874 ft | 299 kts | 216° |
| 2026-04-23 14:08 | 43.71799 | -1.22816 | 7664 ft | 291 kts | 218° |
| 2026-04-23 14:08 | 43.70261 | -1.24576 | 7464 ft | 283 kts | 218° |
| 2026-04-23 14:08 | 43.68776 | -1.26289 | 7272 ft | 274 kts | 218° |
| 2026-04-23 14:08 | 43.67323 | -1.27957 | 7069 ft | 269 kts | 217° |
| 2026-04-23 14:09 | 43.65875 | -1.29600 | 6859 ft | 269 kts | 217° |
| 2026-04-23 14:09 | 43.64443 | -1.31219 | 6532 ft | 260 kts | 217° |
| 2026-04-23 14:09 | 43.63080 | -1.32752 | 6206 ft | 246 kts | 217° |
| 2026-04-23 14:09 | 43.61798 | -1.34194 | 5891 ft | 237 kts | 219° |
| 2026-04-23 14:10 | 43.60894 | -1.36042 | 5564 ft | 236 kts | 253° |
| 2026-04-23 14:10 | 43.60829 | -1.38325 | 5252 ft | 236 kts | 279° |
| 2026-04-23 14:10 | 43.61408 | -1.40365 | 5021 ft | 230 kts | 295° |
| 2026-04-23 14:10 | 43.62097 | -1.42311 | 4768 ft | 221 kts | 289° |
| 2026-04-23 14:11 | 43.62626 | -1.44301 | 4539 ft | 215 kts | 283° |
| 2026-04-23 14:11 | 43.62992 | -1.46257 | 4452 ft | 212 kts | 277° |
| 2026-04-23 14:11 | 43.63176 | -1.47722 | 4470 ft | 211 kts | 274° |
| 2026-04-23 14:11 | 43.63319 | -1.49741 | 4481 ft | 211 kts | 269° |
| 2026-04-23 14:12 | 43.63337 | -1.51764 | 4478 ft | 210 kts | 264° |
| 2026-04-23 14:12 | 43.63229 | -1.53768 | 4380 ft | 210 kts | 259° |
| 2026-04-23 14:12 | 43.62978 | -1.55825 | 3997 ft | 215 kts | 254° |
| 2026-04-23 14:12 | 43.62617 | -1.57760 | 3878 ft | 208 kts | 249° |
| 2026-04-23 14:13 | 43.62166 | -1.59628 | 3758 ft | 204 kts | 244° |
| 2026-04-23 14:13 | 43.61289 | -1.61060 | 3634 ft | 195 kts | 206° |
| 2026-04-23 14:13 | 43.60071 | -1.61871 | 3513 ft | 196 kts | 207° |
| 2026-04-23 14:13 | 43.58913 | -1.62859 | 3405 ft | 195 kts | 211° |
| 2026-04-23 14:14 | 43.57791 | -1.63899 | 3298 ft | 190 kts | 212° |
| 2026-04-23 14:14 | 43.56756 | -1.64875 | 3332 ft | 173 kts | 212° |
| 2026-04-23 14:14 | 43.55746 | -1.65838 | 3714 ft | 178 kts | 212° |
| 2026-04-23 14:14 | 43.54679 | -1.66594 | 3814 ft | 170 kts | 191° |
| 2026-04-23 14:15 | 43.53498 | -1.66676 | 3393 ft | 169 kts | 179° |
| 2026-04-23 14:15 | 43.52368 | -1.66667 | 3216 ft | 156 kts | 178° |
| 2026-04-23 14:15 | 43.51310 | -1.66636 | 2970 ft | 151 kts | 176° |
| 2026-04-23 14:15 | 43.50260 | -1.66575 | 2648 ft | 151 kts | 172° |
| 2026-04-23 14:16 | 43.49170 | -1.66335 | 2474 ft | 170 kts | 162° |
| 2026-04-23 14:16 | 43.48097 | -1.65596 | 2369 ft | 176 kts | 141° |
| 2026-04-23 14:16 | 43.47265 | -1.64384 | 2231 ft | 168 kts | 123° |
| 2026-04-23 14:16 | 43.46886 | -1.62989 | 2108 ft | 151 kts | 94° |
| 2026-04-23 14:17 | 43.46877 | -1.61557 | 1765 ft | 150 kts | 90° |
| 2026-04-23 14:17 | 43.46859 | -1.60140 | 1472 ft | 146 kts | 93° |
| 2026-04-23 14:17 | 43.46812 | -1.58746 | 1179 ft | 141 kts | 91° |
| 2026-04-23 14:17 | 43.46783 | -1.57423 | 859 ft | 136 kts | 89° |
| 2026-04-23 14:18 | 43.46782 | -1.56136 | 659 ft | 131 kts | 86° |
| 2026-04-23 14:18 | 43.46820 | -1.54916 | 418 ft | 123 kts | 85° |
| 2026-04-23 14:18 | 43.46825 | -1.53779 | 271 ft | 116 kts | 86° |
| 2026-04-23 14:18 | 43.46842 | -1.52852 | 241 ft | 64 kts | 88° |
| 2026-04-23 14:19 | 43.46845 | -1.52310 | 241 ft | 43 kts | 90° |
| 2026-04-23 14:19 | 43.46874 | -1.52174 | 241 ft | 9 kts | 11° |
| 2026-04-23 14:19 | 43.46941 | -1.52183 | 242 ft | 10 kts | 349° |
| 2026-04-23 14:19 | 43.46994 | -1.52230 | 242 ft | 8 kts | 295° |
| 2026-04-23 14:20 | 43.46995 | -1.52308 | 242 ft | 8 kts | 265° |
| 2026-04-23 14:20 | 43.46991 | -1.52379 | 242 ft | 9 kts | 269° |
| 2026-04-23 14:20 | 43.46993 | -1.52542 | 242 ft | 21 kts | 271° |
| 2026-04-23 14:20 | 43.46994 | -1.52742 | 242 ft | 21 kts | 269° |
| 2026-04-23 14:21 | 43.47030 | -1.52889 | 242 ft | 16 kts | 323° |
| 2026-04-23 14:21 | 43.47055 | -1.52960 | 242 ft | 0 kts | 273° |
| 2026-04-23 14:21 | 43.47055 | -1.52979 | 242 ft | 0 kts | 268° |
| 2026-04-23 14:21 | 43.47065 | -1.53001 | 242 ft | 4 kts | 330° |
| 2026-04-23 14:22 | 43.47121 | -1.53000 | 242 ft | 10 kts | 0° |
| 2026-04-23 14:22 | 43.47133 | -1.53001 | 242 ft | 0 kts | 359° |
| 2026-04-23 14:24 | 43.47128 | -1.53001 | 242 ft | 0 kts | 359° |